Brattleboro, VT (05301)

2:15 AM EST on December 04, 2016 (GMT -0500)
West Brattleboro | | Change Station

Elev 689 ft 42.87 °N, 72.60 °W | Updated 4 minutes ago

Overcast
Overcast
31.3 °F
Feels Like 31 °F
N
1.0
Wind Variable Wind from NE
Gusts 4.0 mph

Today
High -- | Low -- °F
--% Chance of Precip.
Yesterday
High -- | Low -- °F
Precip. -- in
Pressure 30.18 in
Visibility 10.0 miles
Clouds Overcast 3800 ft
Windchill 31 °F
Dew Point 23 °F
Humidity 70%
Rainfall 0.00 in
Snow Depth Not available.
7:05 AM 4:16 PM
Waxing Crescent, 20% visible
METAR KEEN 040656Z AUTO 33008KT 10SM OVC038 01/M07 A3011 RMK AO2 SLP218 T00061067 FZRANO PNO $
Pressure 30.18 in
Visibility 10.0 miles
Clouds Overcast 3800 ft
Windchill 31 °F
Dew Point 23 °F
Humidity 70%
Rainfall 0.00 in
Snow Depth Not available.
7:05 AM 4:16 PM
Waxing Crescent, 20% visible
METAR KEEN 040656Z AUTO 33008KT 10SM OVC038 01/M07 A3011 RMK AO2 SLP218 T00061067 FZRANO PNO $

10-Day Weather Forecast

Almanac

Astronomy

Dec. 04, 2016 Rise Set
Actual Time
Civil Twilight
Nautical Twilight
Astronomical Twilight
Moon
Length of Visible Light
Length of Day
Tomorrow will be .
, % of the Moon is Illuminated

Today's Extremes

State Highs State Lows

Community

WunderPhotos

Upload Photos

1,955,587 photos uploaded!

WunderBlog® & News

Nearby

Air Quality

  Air Quality AQ Index Pollutant
Not available.

Snow Depth

Station Depth Elevation

Earthquake Activity

City Distance Mag. Time & Date
Minimum magnitude displayed is 2.5.

Coastal Water Temperatures

Place Temperature

Stations

Nearby Weather Stations

Station Location Temp. Windchill Dew Point Humidity Wind Precip. Elev Updated Type
                   

Watches & Warnings

There are currently no watches in effect.